createdAt,value
2018-07-22T00:02:03.376Z,14.43
2018-07-22T00:04:32.732Z,16.32
2018-07-22T00:07:02.126Z,16.80
2018-07-22T00:09:31.691Z,16.50
2018-07-22T00:12:00.942Z,17.62
2018-07-22T00:14:30.257Z,16.93
2018-07-22T00:16:59.971Z,18.00
2018-07-22T00:19:29.368Z,16.77
2018-07-22T00:21:58.777Z,16.77
2018-07-22T00:24:28.323Z,16.85
2018-07-22T00:26:57.682Z,16.05
2018-07-22T00:29:27.086Z,16.90
2018-07-22T00:32:00.335Z,17.60
2018-07-22T00:34:30.775Z,16.85
2018-07-22T00:37:00.230Z,17.12
2018-07-22T00:39:29.652Z,16.87
2018-07-22T00:41:59.047Z,18.37
2018-07-22T00:44:28.450Z,18.77
2018-07-22T00:46:57.701Z,18.92
2018-07-22T00:49:27.105Z,19.67
2018-07-22T00:51:56.364Z,19.92
2018-07-22T00:54:25.557Z,19.00
2018-07-22T00:56:54.868Z,19.12
2018-07-22T00:59:24.186Z,17.67
2018-07-22T01:01:53.582Z,18.98
2018-07-22T01:04:22.953Z,18.80
2018-07-22T01:06:52.369Z,18.27
2018-07-22T01:09:21.741Z,19.42
2018-07-22T01:11:50.843Z,19.87
2018-07-22T01:14:20.227Z,17.90
2018-07-22T01:16:49.663Z,19.70
2018-07-22T01:19:19.075Z,17.42
2018-07-22T01:21:48.535Z,17.52
2018-07-22T01:24:18.014Z,17.85
2018-07-22T01:26:47.561Z,18.30
2018-07-22T01:29:16.986Z,17.82
2018-07-22T01:31:46.453Z,17.65
2018-07-22T01:34:15.871Z,15.50
2018-07-22T01:36:47.129Z,15.88
2018-07-22T01:39:16.639Z,16.85
2018-07-22T01:41:46.115Z,16.00
2018-07-22T01:44:15.498Z,11.35
2018-07-22T01:46:45.742Z,12.07
2018-07-22T01:49:15.249Z,12.47
2018-07-22T01:51:44.587Z,12.58
2018-07-22T01:54:13.849Z,12.70
2018-07-22T01:56:46.502Z,13.03
2018-07-22T01:59:15.806Z,13.20
2018-07-22T02:01:45.172Z,14.35
2018-07-22T02:04:14.530Z,13.45
2018-07-22T02:06:43.917Z,12.35
2018-07-22T02:09:14.190Z,11.97
2018-07-22T02:11:43.367Z,11.80
2018-07-22T02:14:12.753Z,10.80
2018-07-22T02:16:41.989Z,11.45
2018-07-22T02:19:11.733Z,10.05
2018-07-22T02:21:41.214Z,9.20
2018-07-22T02:24:10.565Z,9.45
2018-07-22T02:26:39.951Z,10.28
2018-07-22T02:29:09.431Z,9.60
2018-07-22T02:31:38.971Z,10.13
2018-07-22T02:34:08.325Z,9.85
2018-07-22T02:36:37.666Z,9.03
2018-07-22T02:39:09.866Z,9.88
2018-07-22T02:41:40.520Z,10.23
2018-07-22T02:44:10.242Z,9.60
2018-07-22T02:46:39.472Z,10.10
2018-07-22T02:49:08.987Z,9.87
2018-07-22T02:51:38.458Z,11.48
2018-07-22T02:54:07.796Z,11.20
2018-07-22T02:56:37.154Z,10.08
2018-07-22T02:59:07.167Z,10.43
2018-07-22T03:01:38.646Z,11.35
2018-07-22T03:04:11.167Z,11.12
2018-07-22T03:06:40.360Z,11.00
2018-07-22T03:09:10.547Z,12.25
2018-07-22T03:11:40.028Z,10.88
2018-07-22T03:14:09.456Z,12.05
2018-07-22T03:16:38.919Z,11.68
2018-07-22T03:19:08.326Z,10.90
2018-07-22T03:21:37.584Z,11.43
2018-07-22T03:24:07.357Z,11.43
2018-07-22T03:26:36.673Z,11.57
2018-07-22T03:29:06.219Z,11.30
2018-07-22T03:31:35.609Z,12.07
2018-07-22T03:34:05.189Z,11.53
2018-07-22T03:36:34.499Z,11.33
2018-07-22T03:39:04.632Z,12.03
2018-07-22T03:41:35.246Z,12.63
2018-07-22T03:44:04.609Z,11.63
2018-07-22T03:46:34.565Z,11.88
2018-07-22T03:49:04.364Z,11.05
2018-07-22T03:51:37.568Z,11.75
2018-07-22T03:54:07.074Z,11.57
2018-07-22T03:56:36.644Z,11.18
2018-07-22T03:59:05.873Z,10.88
2018-07-22T04:01:35.188Z,10.70
2018-07-22T04:04:04.537Z,10.88
2018-07-22T04:06:33.859Z,10.58
2018-07-22T04:09:03.272Z,10.40
2018-07-22T04:11:33.334Z,9.30
2018-07-22T04:14:02.815Z,9.75
2018-07-22T04:16:32.444Z,9.70
2018-07-22T04:19:01.648Z,9.75
2018-07-22T04:21:30.955Z,9.65
2018-07-22T04:24:00.318Z,9.23
2018-07-22T04:26:29.650Z,9.23
2018-07-22T04:28:59.111Z,9.75
2018-07-22T04:31:28.501Z,8.85
2018-07-22T04:33:57.988Z,8.55
2018-07-22T04:36:27.537Z,8.30
2018-07-22T04:38:56.893Z,9.05
2018-07-22T04:41:26.325Z,8.70
2018-07-22T04:43:55.787Z,9.08
2018-07-22T04:46:25.198Z,8.45
2018-07-22T04:48:54.653Z,8.40
2018-07-22T04:51:23.924Z,8.70
2018-07-22T04:53:55.069Z,8.15
2018-07-22T04:56:24.857Z,7.65
2018-07-22T04:58:54.938Z,7.85
2018-07-22T05:01:24.585Z,8.58
2018-07-22T05:03:54.141Z,7.92
2018-07-22T05:06:23.590Z,7.28
2018-07-22T05:08:52.903Z,7.62
2018-07-22T05:11:23.807Z,7.12
2018-07-22T05:13:53.283Z,7.22
2018-07-22T05:16:23.033Z,6.92
2018-07-22T05:18:52.122Z,7.22
2018-07-22T05:21:21.481Z,6.70
2018-07-22T05:23:50.814Z,6.85
2018-07-22T05:26:21.353Z,6.65
2018-07-22T05:28:54.404Z,6.62
2018-07-22T05:31:24.535Z,6.92
2018-07-22T05:33:54.016Z,6.47
2018-07-22T05:36:23.446Z,6.28
2018-07-22T05:38:52.942Z,6.00
2018-07-22T05:41:22.382Z,6.70
2018-07-22T05:43:51.760Z,7.42
2018-07-22T05:46:22.193Z,7.55
2018-07-22T05:48:51.464Z,7.50
2018-07-22T05:51:20.908Z,7.40
2018-07-22T05:53:50.502Z,6.85
2018-07-22T05:56:20.124Z,6.65
2018-07-22T05:58:49.537Z,7.05
2018-07-22T06:01:18.911Z,6.08
2018-07-22T06:03:48.281Z,6.67
2018-07-22T06:06:17.873Z,6.75
2018-07-22T06:08:47.422Z,6.30
2018-07-22T06:11:16.722Z,6.50
2018-07-22T06:13:46.148Z,6.30
2018-07-22T06:16:15.394Z,6.67
2018-07-22T06:18:45.008Z,6.60
2018-07-22T06:21:14.346Z,5.62
2018-07-22T06:23:43.859Z,6.25
2018-07-22T06:26:13.114Z,5.72
2018-07-22T06:28:42.556Z,6.28
2018-07-22T06:31:11.970Z,5.97
2018-07-22T06:33:41.215Z,5.83
2018-07-22T06:36:10.597Z,4.80
2018-07-22T06:38:39.818Z,4.80
2018-07-22T06:41:09.181Z,5.47
2018-07-22T06:43:38.594Z,5.22
2018-07-22T06:46:08.614Z,5.20
2018-07-22T06:48:39.571Z,5.20
2018-07-22T06:51:08.966Z,4.75
2018-07-22T06:53:38.370Z,5.42
2018-07-22T06:56:08.399Z,4.40
2018-07-22T06:58:37.827Z,5.20
2018-07-22T07:01:07.209Z,4.47
2018-07-22T07:03:36.573Z,4.83
2018-07-22T07:06:05.935Z,4.28
2018-07-22T07:08:35.158Z,4.80
2018-07-22T07:11:04.523Z,4.70
2018-07-22T07:13:34.075Z,5.10
2018-07-22T07:16:03.611Z,4.50
2018-07-22T07:18:33.307Z,4.65
2018-07-22T07:21:03.065Z,4.50
2018-07-22T07:23:32.924Z,5.08
2018-07-22T07:26:06.284Z,4.90
2018-07-22T07:51:01.613Z,4.65
2018-07-22T08:00:30.176Z,4.55
2018-07-22T08:06:09.524Z,4.70
2018-07-22T08:14:43.619Z,5.85
2018-07-22T08:25:28.538Z,6.78
2018-07-22T08:36:26.634Z,7.67
2018-07-22T08:38:57.762Z,7.12
2018-07-22T08:41:27.868Z,6.65
2018-07-22T08:43:59.726Z,7.15
2018-07-22T08:46:29.561Z,6.80
2018-07-22T08:48:59.397Z,7.30
2018-07-22T08:51:30.322Z,6.53
2018-07-22T08:54:01.068Z,6.92
2018-07-22T08:56:33.135Z,6.10
2018-07-22T08:59:03.588Z,6.58
2018-07-22T09:04:43.305Z,6.08
2018-07-22T09:07:21.904Z,5.80
2018-07-22T09:38:01.981Z,4.22
2018-07-22T09:41:01.387Z,4.12
2018-07-22T09:43:58.865Z,3.62
2018-07-22T09:46:48.246Z,3.20
2018-07-22T09:49:27.680Z,2.50
2018-07-22T09:51:59.230Z,2.85
2018-07-22T09:54:59.844Z,2.67
2018-07-22T09:57:34.464Z,2.75
2018-07-22T10:00:04.309Z,2.25
2018-07-22T10:02:36.971Z,2.40
2018-07-22T10:05:07.189Z,2.55
2018-07-22T10:07:38.007Z,2.45
2018-07-22T10:10:08.945Z,2.10
2018-07-22T10:12:42.819Z,2.37
2018-07-22T10:15:17.086Z,2.30
2018-07-22T10:17:47.803Z,2.05
2018-07-22T10:20:18.979Z,2.30
2018-07-22T10:22:52.030Z,2.30
2018-07-22T10:25:23.375Z,2.22
2018-07-22T10:27:54.160Z,2.47
2018-07-22T10:30:23.855Z,2.30
2018-07-22T10:32:54.098Z,2.15
2018-07-22T10:35:23.969Z,2.33
2018-07-22T10:37:54.546Z,2.30
2018-07-22T10:40:24.884Z,2.17
2018-07-22T10:42:57.059Z,2.20
2018-07-22T10:45:32.900Z,2.55
2018-07-22T10:48:09.035Z,2.17
2018-07-22T10:50:45.463Z,2.05
2018-07-22T10:58:48.754Z,2.37
2018-07-22T11:01:29.989Z,1.70
2018-07-22T11:04:11.885Z,1.80
2018-07-22T11:21:19.327Z,1.90
2018-07-22T11:23:48.540Z,1.85
2018-07-22T11:26:18.015Z,2.10
2018-07-22T11:28:47.696Z,1.95
2018-07-22T11:31:17.050Z,1.87
2018-07-22T11:33:46.411Z,1.87
2018-07-22T11:36:15.778Z,1.70
2018-07-22T11:38:45.242Z,2.00
2018-07-22T11:41:14.838Z,2.10
2018-07-22T11:43:44.413Z,2.10
2018-07-22T11:46:14.337Z,2.00
2018-07-22T11:48:43.712Z,1.98
2018-07-22T11:51:13.283Z,2.30
2018-07-22T11:53:43.136Z,2.22
2018-07-22T11:56:12.591Z,2.02
2018-07-22T11:58:41.968Z,2.33
2018-07-22T12:01:11.521Z,2.42
2018-07-22T12:03:40.940Z,2.37
2018-07-22T12:06:10.889Z,2.12
2018-07-22T12:08:40.466Z,2.40
2018-07-22T12:11:09.975Z,2.25
2018-07-22T12:13:39.713Z,2.50
2018-07-22T12:16:09.270Z,2.33
2018-07-22T12:18:44.131Z,2.52
2018-07-22T12:21:13.863Z,2.45
2018-07-22T12:23:43.981Z,2.35
2018-07-22T12:26:13.376Z,2.12
2018-07-22T12:28:42.613Z,3.08
2018-07-22T12:31:11.937Z,2.60
2018-07-22T12:33:41.186Z,2.90
2018-07-22T12:36:11.239Z,3.60
2018-07-22T12:38:41.088Z,3.08
2018-07-22T12:41:10.401Z,3.30
2018-07-22T12:43:39.706Z,3.62
2018-07-22T12:46:09.064Z,3.40
2018-07-22T12:48:38.426Z,3.40
2018-07-22T12:51:07.381Z,4.10
2018-07-22T12:54:05.360Z,3.52
2018-07-22T12:56:34.885Z,3.75
2018-07-22T12:59:05.778Z,3.40
2018-07-22T13:01:37.052Z,3.40
2018-07-22T13:04:06.696Z,4.70
2018-07-22T13:06:36.159Z,4.05
2018-07-22T13:09:08.283Z,3.98
2018-07-22T13:11:38.014Z,4.08
2018-07-22T13:14:07.934Z,4.03
2018-07-22T13:16:37.746Z,4.85
2018-07-22T13:19:07.100Z,4.95
2018-07-22T13:21:36.569Z,5.00
2018-07-22T13:24:05.996Z,5.28
2018-07-22T13:26:35.514Z,5.55
2018-07-22T13:29:05.233Z,7.20
2018-07-22T13:31:34.820Z,8.05
2018-07-22T13:34:04.340Z,8.80
2018-07-22T13:36:33.705Z,10.85
2018-07-22T13:39:03.178Z,10.68
2018-07-22T13:41:32.581Z,10.25
2018-07-22T13:44:02.050Z,9.95
2018-07-22T13:46:31.722Z,8.03
2018-07-22T13:49:01.299Z,8.15
2018-07-22T13:51:31.559Z,9.95
2018-07-22T13:54:04.130Z,9.80
2018-07-22T13:56:33.583Z,10.95
2018-07-22T13:59:03.062Z,11.85
2018-07-22T14:01:32.455Z,13.48
2018-07-22T14:04:02.054Z,12.47
2018-07-22T14:06:40.418Z,14.15
2018-07-22T14:09:11.516Z,13.83
2018-07-22T14:11:40.956Z,15.43
2018-07-22T14:14:11.266Z,13.93
2018-07-22T14:16:40.602Z,13.80
2018-07-22T14:19:10.443Z,14.20
2018-07-22T14:21:39.948Z,14.90
2018-07-22T14:24:09.402Z,17.27
2018-07-22T14:26:38.835Z,16.97
2018-07-22T14:29:08.324Z,17.75
2018-07-22T14:31:37.981Z,18.02
2018-07-22T14:34:07.270Z,18.25
2018-07-22T14:36:36.797Z,18.25
2018-07-22T14:39:10.587Z,15.65
2018-07-22T14:41:40.105Z,18.23
2018-07-22T14:44:09.567Z,17.37
2018-07-22T14:46:38.976Z,17.25
2018-07-22T14:49:08.622Z,17.73
2018-07-22T14:51:37.988Z,18.50
2018-07-22T14:54:07.496Z,17.25
2018-07-22T14:56:37.040Z,19.30
2018-07-22T14:59:06.770Z,21.10
2018-07-22T15:01:36.420Z,20.80
2018-07-22T15:04:07.439Z,19.77
2018-07-22T15:06:37.166Z,19.02
2018-07-22T15:09:08.888Z,21.80
2018-07-22T15:11:38.982Z,20.43
2018-07-22T15:14:14.810Z,21.00
2018-07-22T15:16:44.746Z,19.55
2018-07-22T15:19:14.346Z,21.05
2018-07-22T15:21:44.092Z,21.50
2018-07-22T15:24:19.062Z,21.02
2018-07-22T15:26:48.850Z,22.48
2018-07-22T15:29:18.619Z,23.07
2018-07-22T15:31:49.027Z,22.60
2018-07-22T15:34:18.447Z,21.60
2018-07-22T15:36:48.145Z,22.20
2018-07-22T15:39:17.559Z,21.15
2018-07-22T15:41:47.072Z,20.97
2018-07-22T15:44:16.643Z,19.70
2018-07-22T15:46:46.144Z,20.23
2018-07-22T15:49:15.587Z,19.52
2018-07-22T15:51:45.177Z,19.15
2018-07-22T15:54:14.722Z,19.48
2018-07-22T15:56:44.175Z,18.48
2018-07-22T15:59:13.700Z,19.37
2018-07-22T16:01:43.343Z,20.17
2018-07-22T16:04:12.972Z,19.77
2018-07-22T16:06:45.853Z,20.48
2018-07-22T16:09:15.236Z,19.57
2018-07-22T16:11:45.371Z,20.00
2018-07-22T16:14:15.018Z,19.00
2018-07-22T16:16:44.537Z,17.87
2018-07-22T16:19:14.199Z,18.52
2018-07-22T16:21:43.656Z,19.90
2018-07-22T16:24:13.170Z,18.52
2018-07-22T16:26:42.780Z,18.27
2018-07-22T16:29:12.111Z,17.57
2018-07-22T16:31:42.416Z,18.27
2018-07-22T16:34:12.024Z,18.87
2018-07-22T16:36:41.654Z,19.02
2018-07-22T16:39:11.592Z,18.70
2018-07-22T16:41:41.026Z,17.35
2018-07-22T16:44:13.168Z,18.45
2018-07-22T16:46:42.857Z,19.32
2018-07-22T16:49:12.586Z,17.75
2018-07-22T16:51:42.123Z,19.92
2018-07-22T16:54:11.706Z,19.10
2018-07-22T16:56:41.478Z,17.85
2018-07-22T16:59:11.019Z,19.25
2018-07-22T17:01:40.569Z,17.77
2018-07-22T17:04:10.896Z,18.00
2018-07-22T17:06:40.345Z,17.90
2018-07-22T17:09:11.387Z,17.62
2018-07-22T17:11:40.877Z,18.00
2018-07-22T17:14:10.706Z,17.60
2018-07-22T17:16:40.192Z,18.00
2018-07-22T17:19:09.488Z,17.17
2018-07-22T17:21:38.957Z,16.97
2018-07-22T17:24:08.562Z,18.10
2018-07-22T17:26:41.107Z,16.57
2018-07-22T17:29:11.152Z,17.92
2018-07-22T17:31:40.735Z,17.52
2018-07-22T17:34:10.691Z,18.15
2018-07-22T17:36:40.355Z,17.98
2018-07-22T17:39:11.284Z,18.12
2018-07-22T17:41:41.475Z,18.17
2018-07-22T17:44:11.049Z,17.98
2018-07-22T17:46:40.724Z,18.45
2018-07-22T17:49:10.860Z,19.75
2018-07-22T17:51:40.443Z,20.30
2018-07-22T17:54:10.448Z,20.55
2018-07-22T17:56:40.890Z,19.77
2018-07-22T17:59:11.703Z,21.55
2018-07-22T18:01:52.643Z,22.35
2018-07-22T18:04:31.305Z,23.70
2018-07-22T18:07:04.253Z,23.00
2018-07-22T18:09:34.417Z,22.82
2018-07-22T18:12:08.400Z,23.38
2018-07-22T18:14:38.039Z,21.40
2018-07-22T18:17:07.544Z,20.60
2018-07-22T18:19:37.117Z,21.87
2018-07-22T18:22:06.519Z,21.33
2018-07-22T18:24:35.966Z,21.23
2018-07-22T18:27:05.309Z,22.48
2018-07-22T18:29:34.729Z,23.57
2018-07-22T18:32:04.267Z,24.75
2018-07-22T18:34:33.674Z,23.65
2018-07-22T18:37:02.903Z,23.47
2018-07-22T18:39:32.386Z,24.25
2018-07-22T18:42:01.482Z,24.52
2018-07-22T18:44:30.667Z,24.27
2018-07-22T18:46:59.889Z,23.40
2018-07-22T18:49:29.246Z,24.02
2018-07-22T18:51:58.796Z,24.15
2018-07-22T18:54:28.161Z,25.43
2018-07-22T18:57:00.661Z,24.00
2018-07-22T18:59:33.736Z,23.70
2018-07-22T19:02:02.987Z,22.40
2018-07-22T19:04:32.153Z,22.50
2018-07-22T19:07:01.507Z,23.47
2018-07-22T19:09:30.644Z,23.57
2018-07-22T19:12:00.283Z,23.67
2018-07-22T19:14:29.418Z,24.57
2018-07-22T19:16:58.705Z,24.35
2018-07-22T19:19:28.709Z,23.83
2018-07-22T19:21:57.958Z,23.60
2018-07-22T19:24:27.146Z,22.97
2018-07-22T19:26:56.490Z,25.50
2018-07-22T19:29:25.644Z,24.10
2018-07-22T19:31:54.938Z,24.20
2018-07-22T19:34:24.378Z,24.70
2018-07-22T19:36:54.129Z,23.38
2018-07-22T19:39:23.598Z,24.87
2018-07-22T19:41:53.182Z,24.53
2018-07-22T19:44:22.616Z,23.53
2018-07-22T19:46:52.914Z,23.27
2018-07-22T19:49:22.182Z,23.43
2018-07-22T19:51:51.606Z,22.73
2018-07-22T19:54:20.973Z,24.20
2018-07-22T19:56:50.394Z,23.70
2018-07-22T19:59:20.038Z,24.07
2018-07-22T20:01:49.363Z,25.43
2018-07-22T20:04:18.842Z,26.10
2018-07-22T20:06:48.483Z,26.80
2018-07-22T20:09:17.744Z,26.73
2018-07-22T20:11:47.030Z,27.80
2018-07-22T20:14:16.382Z,26.80
2018-07-22T20:16:45.724Z,27.93
2018-07-22T20:19:15.012Z,28.87
2018-07-22T20:21:44.354Z,29.92
2018-07-22T20:24:14.272Z,30.25
2018-07-22T20:26:43.791Z,29.57
2018-07-22T20:29:13.304Z,28.90
2018-07-22T20:31:42.713Z,29.67
2018-07-22T20:34:12.131Z,26.97
2018-07-22T20:36:41.466Z,29.65
2018-07-22T20:39:11.979Z,28.27
2018-07-22T20:41:42.035Z,27.53
2018-07-22T20:44:11.667Z,28.07
2018-07-22T20:46:41.098Z,27.17
2018-07-22T20:49:10.535Z,28.53
2018-07-22T20:51:39.998Z,28.13
2018-07-22T20:54:09.324Z,27.45
2018-07-22T20:56:38.729Z,26.70
2018-07-22T20:59:08.223Z,25.88
2018-07-22T21:01:37.544Z,27.20
2018-07-22T21:04:07.257Z,25.37
2018-07-22T21:06:36.870Z,27.83
2018-07-22T21:09:08.242Z,25.23
2018-07-22T21:13:44.777Z,25.20
2018-07-22T21:16:14.022Z,24.43
2018-07-22T21:18:43.314Z,27.50
2018-07-22T21:21:12.703Z,25.30
2018-07-22T21:23:41.868Z,26.93
2018-07-22T21:26:11.265Z,25.02
2018-07-22T21:28:40.582Z,26.50
2018-07-22T21:31:10.006Z,23.73
2018-07-22T21:33:41.611Z,23.73
2018-07-22T21:36:24.564Z,25.10
2018-07-22T21:38:54.023Z,23.05
2018-07-22T21:41:25.988Z,22.87
2018-07-22T21:43:57.345Z,24.50
2018-07-22T21:46:26.802Z,24.02
2018-07-22T21:48:56.090Z,25.95
2018-07-22T21:51:25.395Z,24.70
2018-07-22T21:53:54.710Z,23.67
2018-07-22T21:56:27.452Z,23.67
2018-07-22T21:58:59.663Z,23.12
2018-07-22T22:01:30.539Z,23.15
2018-07-22T22:03:59.865Z,23.50
2018-07-22T22:06:29.226Z,24.18
2018-07-22T22:08:58.623Z,24.50
2018-07-22T22:11:28.000Z,24.63
2018-07-22T22:13:57.489Z,24.80
2018-07-22T22:16:26.831Z,23.45
2018-07-22T22:18:56.309Z,24.45
2018-07-22T22:21:25.727Z,23.32
2018-07-22T22:23:55.203Z,25.15
2018-07-22T22:26:29.246Z,27.70
2018-07-22T22:28:58.611Z,25.02
2018-07-22T22:31:28.042Z,25.25
2018-07-22T22:33:57.420Z,25.70
2018-07-22T22:36:26.874Z,24.87
2018-07-22T22:38:56.309Z,25.77
2018-07-22T22:41:25.614Z,26.23
2018-07-22T22:43:54.826Z,24.70
2018-07-22T22:46:24.212Z,25.70
2018-07-22T22:48:53.582Z,24.60
2018-07-22T22:51:23.041Z,24.77
2018-07-22T22:53:52.430Z,24.80
2018-07-22T22:56:22.157Z,23.13
2018-07-22T22:59:02.328Z,25.13
2018-07-22T23:01:31.739Z,24.80
2018-07-22T23:04:01.426Z,24.32
2018-07-22T23:06:30.971Z,23.43
2018-07-22T23:09:00.432Z,24.35
2018-07-22T23:11:29.878Z,25.83
2018-07-22T23:13:59.264Z,25.30
2018-07-22T23:16:28.660Z,26.17
2018-07-22T23:18:58.063Z,23.73
2018-07-22T23:21:27.405Z,22.93
2018-07-22T23:23:56.825Z,21.87
2018-07-22T23:26:26.276Z,22.70
2018-07-22T23:28:55.855Z,21.13
2018-07-22T23:31:25.240Z,22.48
2018-07-22T23:33:54.998Z,21.83
2018-07-22T23:36:24.594Z,20.57
2018-07-22T23:38:54.095Z,20.43
2018-07-22T23:41:23.475Z,20.30
2018-07-22T23:43:52.767Z,18.32
2018-07-22T23:46:22.251Z,19.10
2018-07-22T23:48:51.719Z,19.13
2018-07-22T23:51:20.914Z,18.70
2018-07-22T23:53:50.438Z,18.77
2018-07-22T23:56:19.582Z,18.80
2018-07-22T23:58:48.848Z,18.60
